sensor_id;sensor_type;location;lat;lon;timestamp;P1;durP1;ratioP1;P2;durP2;ratioP2
19780;SDS011;10050;55.492;13.506;2023-09-08T00:02:18;17.93;;;13.87;;
19780;SDS011;10050;55.492;13.506;2023-09-08T00:04:44;13.60;;;12.17;;
19780;SDS011;10050;55.492;13.506;2023-09-08T00:07:09;15.33;;;12.73;;
19780;SDS011;10050;55.492;13.506;2023-09-08T00:09:35;22.73;;;13.53;;
19780;SDS011;10050;55.492;13.506;2023-09-08T00:12:01;14.70;;;13.20;;
19780;SDS011;10050;55.492;13.506;2023-09-08T00:14:26;21.20;;;13.73;;
19780;SDS011;10050;55.492;13.506;2023-09-08T00:16:52;27.73;;;13.17;;
19780;SDS011;10050;55.492;13.506;2023-09-08T00:19:21;16.53;;;12.70;;
19780;SDS011;10050;55.492;13.506;2023-09-08T00:21:48;17.40;;;12.70;;
19780;SDS011;10050;55.492;13.506;2023-09-08T00:24:14;16.43;;;12.27;;
19780;SDS011;10050;55.492;13.506;2023-09-08T00:26:40;13.67;;;12.17;;
19780;SDS011;10050;55.492;13.506;2023-09-08T00:29:05;14.90;;;12.33;;
19780;SDS011;10050;55.492;13.506;2023-09-08T00:31:31;14.20;;;12.73;;
19780;SDS011;10050;55.492;13.506;2023-09-08T00:33:58;16.83;;;13.40;;
19780;SDS011;10050;55.492;13.506;2023-09-08T00:36:23;14.63;;;11.87;;
19780;SDS011;10050;55.492;13.506;2023-09-08T00:38:49;16.37;;;14.13;;
19780;SDS011;10050;55.492;13.506;2023-09-08T00:41:14;15.67;;;13.60;;
19780;SDS011;10050;55.492;13.506;2023-09-08T00:43:40;18.53;;;13.67;;
19780;SDS011;10050;55.492;13.506;2023-09-08T00:46:06;13.97;;;11.50;;
19780;SDS011;10050;55.492;13.506;2023-09-08T00:48:32;12.50;;;11.17;;
19780;SDS011;10050;55.492;13.506;2023-09-08T00:50:59;14.80;;;12.93;;
19780;SDS011;10050;55.492;13.506;2023-09-08T00:53:26;14.43;;;13.03;;
19780;SDS011;10050;55.492;13.506;2023-09-08T00:55:51;15.90;;;12.33;;
19780;SDS011;10050;55.492;13.506;2023-09-08T00:58:18;14.43;;;12.87;;
19780;SDS011;10050;55.492;13.506;2023-09-08T01:00:44;21.77;;;13.70;;
19780;SDS011;10050;55.492;13.506;2023-09-08T01:03:11;10.90;;;9.83;;
19780;SDS011;10050;55.492;13.506;2023-09-08T01:05:37;18.80;;;13.10;;
19780;SDS011;10050;55.492;13.506;2023-09-08T01:08:03;14.97;;;12.83;;
19780;SDS011;10050;55.492;13.506;2023-09-08T01:10:29;10.73;;;9.70;;
19780;SDS011;10050;55.492;13.506;2023-09-08T01:12:55;14.37;;;12.83;;
19780;SDS011;10050;55.492;13.506;2023-09-08T01:15:20;32.93;;;13.67;;
19780;SDS011;10050;55.492;13.506;2023-09-08T01:17:46;16.10;;;11.77;;
19780;SDS011;10050;55.492;13.506;2023-09-08T01:20:25;30.37;;;12.87;;
19780;SDS011;10050;55.492;13.506;2023-09-08T01:25:55;16.17;;;12.23;;
19780;SDS011;10050;55.492;13.506;2023-09-08T01:28:26;13.10;;;11.73;;
19780;SDS011;10050;55.492;13.506;2023-09-08T01:30:53;16.90;;;12.93;;
19780;SDS011;10050;55.492;13.506;2023-09-08T01:33:20;18.03;;;13.03;;
19780;SDS011;10050;55.492;13.506;2023-09-08T01:35:48;15.77;;;12.20;;
19780;SDS011;10050;55.492;13.506;2023-09-08T01:38:13;15.13;;;12.00;;
19780;SDS011;10050;55.492;13.506;2023-09-08T01:40:39;13.00;;;11.70;;
19780;SDS011;10050;55.492;13.506;2023-09-08T01:43:05;13.87;;;11.87;;
19780;SDS011;10050;55.492;13.506;2023-09-08T01:45:30;12.77;;;11.57;;
19780;SDS011;10050;55.492;13.506;2023-09-08T01:47:56;13.13;;;11.83;;
19780;SDS011;10050;55.492;13.506;2023-09-08T01:50:22;13.50;;;11.97;;
19780;SDS011;10050;55.492;13.506;2023-09-08T01:52:49;11.13;;;10.13;;
19780;SDS011;10050;55.492;13.506;2023-09-08T01:55:15;15.60;;;10.53;;
19780;SDS011;10050;55.492;13.506;2023-09-08T01:57:45;17.67;;;11.80;;
19780;SDS011;10050;55.492;13.506;2023-09-08T02:00:11;13.03;;;11.37;;
19780;SDS011;10050;55.492;13.506;2023-09-08T02:02:37;11.57;;;10.47;;
19780;SDS011;10050;55.492;13.506;2023-09-08T02:05:03;19.87;;;11.77;;
19780;SDS011;10050;55.492;13.506;2023-09-08T02:07:29;13.90;;;10.57;;
19780;SDS011;10050;55.492;13.506;2023-09-08T02:09:56;11.57;;;10.47;;
19780;SDS011;10050;55.492;13.506;2023-09-08T02:12:21;14.37;;;11.40;;
19780;SDS011;10050;55.492;13.506;2023-09-08T02:14:47;24.37;;;10.67;;
19780;SDS011;10050;55.492;13.506;2023-09-08T02:17:13;17.30;;;10.90;;
19780;SDS011;10050;55.492;13.506;2023-09-08T02:19:38;12.07;;;10.40;;
19780;SDS011;10050;55.492;13.506;2023-09-08T02:22:04;9.80;;;8.80;;
19780;SDS011;10050;55.492;13.506;2023-09-08T02:24:30;17.00;;;10.17;;
19780;SDS011;10050;55.492;13.506;2023-09-08T02:26:58;30.83;;;11.13;;
19780;SDS011;10050;55.492;13.506;2023-09-08T02:29:24;15.40;;;11.20;;
19780;SDS011;10050;55.492;13.506;2023-09-08T02:31:49;11.73;;;10.53;;
19780;SDS011;10050;55.492;13.506;2023-09-08T02:34:15;15.60;;;10.10;;
19780;SDS011;10050;55.492;13.506;2023-09-08T02:36:41;7.67;;;6.97;;
19780;SDS011;10050;55.492;13.506;2023-09-08T02:39:07;7.97;;;7.27;;
19780;SDS011;10050;55.492;13.506;2023-09-08T02:41:32;7.67;;;6.97;;
19780;SDS011;10050;55.492;13.506;2023-09-08T02:43:59;7.83;;;7.07;;
19780;SDS011;10050;55.492;13.506;2023-09-08T02:46:24;12.57;;;9.13;;
19780;SDS011;10050;55.492;13.506;2023-09-08T02:48:50;10.40;;;8.27;;
19780;SDS011;10050;55.492;13.506;2023-09-08T02:51:17;9.43;;;7.20;;
19780;SDS011;10050;55.492;13.506;2023-09-08T02:53:43;10.80;;;8.37;;
19780;SDS011;10050;55.492;13.506;2023-09-08T02:56:08;6.63;;;6.10;;
19780;SDS011;10050;55.492;13.506;2023-09-08T02:58:34;7.57;;;6.87;;
19780;SDS011;10050;55.492;13.506;2023-09-08T03:01:10;7.50;;;6.50;;
19780;SDS011;10050;55.492;13.506;2023-09-08T03:03:42;7.70;;;6.97;;
19780;SDS011;10050;55.492;13.506;2023-09-08T03:06:09;6.90;;;5.60;;
19780;SDS011;10050;55.492;13.506;2023-09-08T03:08:35;7.73;;;6.67;;
19780;SDS011;10050;55.492;13.506;2023-09-08T03:11:04;6.67;;;6.17;;
19780;SDS011;10050;55.492;13.506;2023-09-08T03:13:31;6.37;;;5.83;;
19780;SDS011;10050;55.492;13.506;2023-09-08T03:16:01;7.23;;;6.63;;
19780;SDS011;10050;55.492;13.506;2023-09-08T03:18:30;6.63;;;6.13;;
19780;SDS011;10050;55.492;13.506;2023-09-08T03:21:01;5.37;;;4.97;;
19780;SDS011;10050;55.492;13.506;2023-09-08T03:23:37;6.93;;;6.27;;
19780;SDS011;10050;55.492;13.506;2023-09-08T03:26:03;6.37;;;5.77;;
19780;SDS011;10050;55.492;13.506;2023-09-08T03:28:29;5.97;;;5.57;;
19780;SDS011;10050;55.492;13.506;2023-09-08T03:30:55;6.40;;;5.90;;
19780;SDS011;10050;55.492;13.506;2023-09-08T03:33:21;5.80;;;5.30;;
19780;SDS011;10050;55.492;13.506;2023-09-08T03:35:46;5.30;;;4.90;;
19780;SDS011;10050;55.492;13.506;2023-09-08T03:38:12;5.57;;;5.17;;
19780;SDS011;10050;55.492;13.506;2023-09-08T03:40:37;5.77;;;5.27;;
19780;SDS011;10050;55.492;13.506;2023-09-08T03:43:03;5.57;;;5.17;;
19780;SDS011;10050;55.492;13.506;2023-09-08T03:45:29;5.07;;;4.67;;
19780;SDS011;10050;55.492;13.506;2023-09-08T03:47:55;6.50;;;6.00;;
19780;SDS011;10050;55.492;13.506;2023-09-08T03:50:20;4.70;;;4.30;;
19780;SDS011;10050;55.492;13.506;2023-09-08T03:52:46;3.43;;;3.23;;
19780;SDS011;10050;55.492;13.506;2023-09-08T03:55:12;4.43;;;4.03;;
19780;SDS011;10050;55.492;13.506;2023-09-08T03:57:37;4.73;;;4.37;;
19780;SDS011;10050;55.492;13.506;2023-09-08T04:00:03;3.80;;;3.53;;
19780;SDS011;10050;55.492;13.506;2023-09-08T04:02:31;4.17;;;3.87;;
19780;SDS011;10050;55.492;13.506;2023-09-08T04:04:57;4.73;;;4.33;;
19780;SDS011;10050;55.492;13.506;2023-09-08T04:07:22;3.80;;;3.50;;
19780;SDS011;10050;55.492;13.506;2023-09-08T04:09:48;4.80;;;4.40;;
19780;SDS011;10050;55.492;13.506;2023-09-08T04:12:13;4.20;;;3.90;;
19780;SDS011;10050;55.492;13.506;2023-09-08T04:14:39;3.43;;;3.13;;
19780;SDS011;10050;55.492;13.506;2023-09-08T04:17:05;4.93;;;4.53;;
19780;SDS011;10050;55.492;13.506;2023-09-08T04:19:31;5.00;;;4.60;;
19780;SDS011;10050;55.492;13.506;2023-09-08T04:21:56;4.73;;;4.33;;
19780;SDS011;10050;55.492;13.506;2023-09-08T04:24:22;4.77;;;4.47;;
19780;SDS011;10050;55.492;13.506;2023-09-08T04:26:47;4.43;;;4.13;;
19780;SDS011;10050;55.492;13.506;2023-09-08T04:29:13;4.17;;;3.87;;
19780;SDS011;10050;55.492;13.506;2023-09-08T04:31:38;4.13;;;3.70;;
19780;SDS011;10050;55.492;13.506;2023-09-08T04:34:04;4.77;;;4.37;;
19780;SDS011;10050;55.492;13.506;2023-09-08T04:36:30;4.17;;;3.87;;
19780;SDS011;10050;55.492;13.506;2023-09-08T04:38:55;4.00;;;3.70;;
19780;SDS011;10050;55.492;13.506;2023-09-08T04:41:21;4.10;;;3.80;;
19780;SDS011;10050;55.492;13.506;2023-09-08T04:43:47;4.47;;;4.17;;
19780;SDS011;10050;55.492;13.506;2023-09-08T04:46:12;3.93;;;3.63;;
19780;SDS011;10050;55.492;13.506;2023-09-08T04:48:38;4.20;;;3.90;;
19780;SDS011;10050;55.492;13.506;2023-09-08T04:51:04;4.27;;;3.87;;
19780;SDS011;10050;55.492;13.506;2023-09-08T04:53:29;5.33;;;4.47;;
19780;SDS011;10050;55.492;13.506;2023-09-08T04:55:55;3.80;;;3.50;;
19780;SDS011;10050;55.492;13.506;2023-09-08T04:58:21;3.97;;;3.67;;
19780;SDS011;10050;55.492;13.506;2023-09-08T05:00:46;3.80;;;3.50;;
19780;SDS011;10050;55.492;13.506;2023-09-08T05:03:12;4.47;;;4.17;;
19780;SDS011;10050;55.492;13.506;2023-09-08T05:05:38;4.40;;;4.10;;
19780;SDS011;10050;55.492;13.506;2023-09-08T05:08:04;5.20;;;4.70;;
19780;SDS011;10050;55.492;13.506;2023-09-08T05:10:30;4.10;;;3.80;;
19780;SDS011;10050;55.492;13.506;2023-09-08T05:12:55;4.80;;;4.40;;
19780;SDS011;10050;55.492;13.506;2023-09-08T05:15:21;4.20;;;3.73;;
19780;SDS011;10050;55.492;13.506;2023-09-08T05:17:47;3.63;;;3.33;;
19780;SDS011;10050;55.492;13.506;2023-09-08T05:20:12;3.90;;;3.60;;
19780;SDS011;10050;55.492;13.506;2023-09-08T05:22:38;3.90;;;3.20;;
19780;SDS011;10050;55.492;13.506;2023-09-08T05:25:04;2.80;;;2.60;;
19780;SDS011;10050;55.492;13.506;2023-09-08T05:27:30;3.97;;;3.60;;
19780;SDS011;10050;55.492;13.506;2023-09-08T05:29:57;3.20;;;3.00;;
19780;SDS011;10050;55.492;13.506;2023-09-08T05:32:22;3.10;;;2.77;;
19780;SDS011;10050;55.492;13.506;2023-09-08T05:34:48;3.70;;;3.40;;
19780;SDS011;10050;55.492;13.506;2023-09-08T05:37:14;4.20;;;3.80;;
19780;SDS011;10050;55.492;13.506;2023-09-08T05:39:39;3.40;;;2.90;;
19780;SDS011;10050;55.492;13.506;2023-09-08T05:42:06;5.00;;;4.33;;
19780;SDS011;10050;55.492;13.506;2023-09-08T05:44:31;3.40;;;3.20;;
19780;SDS011;10050;55.492;13.506;2023-09-08T05:46:57;5.13;;;3.83;;
19780;SDS011;10050;55.492;13.506;2023-09-08T05:49:23;3.07;;;2.87;;
19780;SDS011;10050;55.492;13.506;2023-09-08T05:51:48;2.30;;;2.20;;
19780;SDS011;10050;55.492;13.506;2023-09-08T05:54:14;5.67;;;4.90;;
19780;SDS011;10050;55.492;13.506;2023-09-08T05:56:40;6.53;;;6.03;;
19780;SDS011;10050;55.492;13.506;2023-09-08T05:59:05;8.13;;;7.47;;
19780;SDS011;10050;55.492;13.506;2023-09-08T06:01:31;8.47;;;7.83;;
19780;SDS011;10050;55.492;13.506;2023-09-08T06:03:57;9.77;;;8.97;;
19780;SDS011;10050;55.492;13.506;2023-09-08T06:06:23;8.17;;;7.43;;
19780;SDS011;10050;55.492;13.506;2023-09-08T06:08:50;7.20;;;6.17;;
19780;SDS011;10050;55.492;13.506;2023-09-08T06:11:16;7.53;;;6.73;;
19780;SDS011;10050;55.492;13.506;2023-09-08T06:13:41;13.00;;;9.10;;
19780;SDS011;10050;55.492;13.506;2023-09-08T06:16:07;9.03;;;8.33;;
19780;SDS011;10050;55.492;13.506;2023-09-08T06:18:33;8.33;;;7.53;;
19780;SDS011;10050;55.492;13.506;2023-09-08T06:21:05;6.93;;;6.27;;
19780;SDS011;10050;55.492;13.506;2023-09-08T06:23:32;7.33;;;6.63;;
19780;SDS011;10050;55.492;13.506;2023-09-08T06:25:58;6.83;;;6.30;;
19780;SDS011;10050;55.492;13.506;2023-09-08T06:28:25;6.40;;;5.90;;
19780;SDS011;10050;55.492;13.506;2023-09-08T06:30:51;7.13;;;6.53;;
19780;SDS011;10050;55.492;13.506;2023-09-08T06:33:17;6.90;;;6.30;;
19780;SDS011;10050;55.492;13.506;2023-09-08T06:35:42;6.93;;;6.33;;
19780;SDS011;10050;55.492;13.506;2023-09-08T06:38:11;7.40;;;6.73;;
19780;SDS011;10050;55.492;13.506;2023-09-08T06:40:37;7.20;;;6.70;;
19780;SDS011;10050;55.492;13.506;2023-09-08T06:43:02;6.33;;;5.83;;
19780;SDS011;10050;55.492;13.506;2023-09-08T06:45:28;6.70;;;6.20;;
19780;SDS011;10050;55.492;13.506;2023-09-08T06:47:54;6.30;;;5.80;;
19780;SDS011;10050;55.492;13.506;2023-09-08T06:50:20;6.20;;;5.70;;
19780;SDS011;10050;55.492;13.506;2023-09-08T06:52:49;5.30;;;4.90;;
19780;SDS011;10050;55.492;13.506;2023-09-08T06:55:16;4.63;;;4.23;;
19780;SDS011;10050;55.492;13.506;2023-09-08T06:57:45;5.07;;;4.63;;
19780;SDS011;10050;55.492;13.506;2023-09-08T07:00:11;4.77;;;4.37;;
19780;SDS011;10050;55.492;13.506;2023-09-08T07:02:38;4.23;;;3.93;;
19780;SDS011;10050;55.492;13.506;2023-09-08T07:05:04;4.70;;;4.30;;
19780;SDS011;10050;55.492;13.506;2023-09-08T07:07:33;3.97;;;3.67;;
19780;SDS011;10050;55.492;13.506;2023-09-08T07:09:59;4.13;;;3.83;;
19780;SDS011;10050;55.492;13.506;2023-09-08T07:12:25;4.87;;;4.00;;
19780;SDS011;10050;55.492;13.506;2023-09-08T07:14:51;4.50;;;4.10;;
19780;SDS011;10050;55.492;13.506;2023-09-08T07:17:16;4.40;;;4.00;;
19780;SDS011;10050;55.492;13.506;2023-09-08T07:19:42;3.83;;;3.50;;
19780;SDS011;10050;55.492;13.506;2023-09-08T07:22:08;4.67;;;3.50;;
19780;SDS011;10050;55.492;13.506;2023-09-08T07:24:33;3.80;;;3.60;;
19780;SDS011;10050;55.492;13.506;2023-09-08T07:27:00;4.00;;;3.73;;
19780;SDS011;10050;55.492;13.506;2023-09-08T07:29:25;4.63;;;4.10;;
19780;SDS011;10050;55.492;13.506;2023-09-08T07:31:51;4.13;;;3.83;;
19780;SDS011;10050;55.492;13.506;2023-09-08T07:34:17;5.27;;;3.73;;
19780;SDS011;10050;55.492;13.506;2023-09-08T07:36:43;4.87;;;4.47;;
19780;SDS011;10050;55.492;13.506;2023-09-08T07:39:08;4.10;;;3.80;;
19780;SDS011;10050;55.492;13.506;2023-09-08T07:41:34;4.30;;;4.00;;
19780;SDS011;10050;55.492;13.506;2023-09-08T07:44:00;3.97;;;3.67;;
19780;SDS011;10050;55.492;13.506;2023-09-08T07:46:28;3.37;;;3.10;;
19780;SDS011;10050;55.492;13.506;2023-09-08T07:48:57;3.90;;;3.60;;
19780;SDS011;10050;55.492;13.506;2023-09-08T07:51:23;3.80;;;3.40;;
19780;SDS011;10050;55.492;13.506;2023-09-08T07:53:49;3.13;;;2.90;;
19780;SDS011;10050;55.492;13.506;2023-09-08T07:56:15;3.90;;;3.60;;
19780;SDS011;10050;55.492;13.506;2023-09-08T07:58:43;4.30;;;4.00;;
19780;SDS011;10050;55.492;13.506;2023-09-08T08:01:13;4.27;;;3.87;;
19780;SDS011;10050;55.492;13.506;2023-09-08T08:03:40;4.30;;;4.00;;
19780;SDS011;10050;55.492;13.506;2023-09-08T08:06:05;5.53;;;3.73;;
19780;SDS011;10050;55.492;13.506;2023-09-08T08:08:31;3.83;;;3.63;;
19780;SDS011;10050;55.492;13.506;2023-09-08T08:10:57;4.00;;;3.70;;
19780;SDS011;10050;55.492;13.506;2023-09-08T08:13:24;4.20;;;3.87;;
19780;SDS011;10050;55.492;13.506;2023-09-08T08:15:53;3.77;;;3.47;;
19780;SDS011;10050;55.492;13.506;2023-09-08T08:18:18;4.33;;;4.03;;
19780;SDS011;10050;55.492;13.506;2023-09-08T08:20:47;4.67;;;4.37;;
19780;SDS011;10050;55.492;13.506;2023-09-08T08:23:12;5.23;;;4.73;;
19780;SDS011;10050;55.492;13.506;2023-09-08T08:25:38;4.30;;;4.00;;
19780;SDS011;10050;55.492;13.506;2023-09-08T08:28:04;5.17;;;4.73;;
19780;SDS011;10050;55.492;13.506;2023-09-08T08:30:29;4.80;;;4.33;;
19780;SDS011;10050;55.492;13.506;2023-09-08T08:32:55;4.90;;;4.50;;
19780;SDS011;10050;55.492;13.506;2023-09-08T08:35:21;5.10;;;4.70;;
19780;SDS011;10050;55.492;13.506;2023-09-08T08:37:46;4.90;;;4.60;;
19780;SDS011;10050;55.492;13.506;2023-09-08T08:40:12;5.27;;;4.77;;
19780;SDS011;10050;55.492;13.506;2023-09-08T08:42:38;5.00;;;4.50;;
19780;SDS011;10050;55.492;13.506;2023-09-08T08:45:05;4.80;;;4.50;;
19780;SDS011;10050;55.492;13.506;2023-09-08T08:47:31;4.83;;;4.43;;
19780;SDS011;10050;55.492;13.506;2023-09-08T08:49:57;5.10;;;4.70;;
19780;SDS011;10050;55.492;13.506;2023-09-08T08:52:25;6.33;;;4.50;;
19780;SDS011;10050;55.492;13.506;2023-09-08T08:54:52;5.57;;;4.67;;
19780;SDS011;10050;55.492;13.506;2023-09-08T08:57:18;4.73;;;4.23;;
19780;SDS011;10050;55.492;13.506;2023-09-08T08:59:47;4.77;;;4.33;;
19780;SDS011;10050;55.492;13.506;2023-09-08T09:02:16;5.00;;;4.30;;
19780;SDS011;10050;55.492;13.506;2023-09-08T09:05:01;7.70;;;4.43;;
19780;SDS011;10050;55.492;13.506;2023-09-08T09:07:27;5.33;;;4.90;;
19780;SDS011;10050;55.492;13.506;2023-09-08T09:09:52;5.10;;;4.70;;
19780;SDS011;10050;55.492;13.506;2023-09-08T09:12:19;5.87;;;5.43;;
19780;SDS011;10050;55.492;13.506;2023-09-08T09:14:46;5.93;;;5.43;;
19780;SDS011;10050;55.492;13.506;2023-09-08T09:17:13;4.67;;;4.27;;
19780;SDS011;10050;55.492;13.506;2023-09-08T09:19:39;5.27;;;4.80;;
19780;SDS011;10050;55.492;13.506;2023-09-08T09:22:05;5.47;;;4.97;;
19780;SDS011;10050;55.492;13.506;2023-09-08T09:24:40;6.73;;;5.23;;
19780;SDS011;10050;55.492;13.506;2023-09-08T09:27:08;5.23;;;4.70;;
19780;SDS011;10050;55.492;13.506;2023-09-08T09:29:48;4.97;;;4.47;;
19780;SDS011;10050;55.492;13.506;2023-09-08T09:32:14;4.33;;;3.93;;
19780;SDS011;10050;55.492;13.506;2023-09-08T09:34:53;5.37;;;4.87;;
19780;SDS011;10050;55.492;13.506;2023-09-08T09:37:19;5.37;;;4.87;;
19780;SDS011;10050;55.492;13.506;2023-09-08T09:39:49;5.47;;;4.80;;
19780;SDS011;10050;55.492;13.506;2023-09-08T09:42:15;6.27;;;5.07;;
19780;SDS011;10050;55.492;13.506;2023-09-08T09:44:42;5.47;;;5.07;;
19780;SDS011;10050;55.492;13.506;2023-09-08T09:47:07;4.77;;;4.37;;
19780;SDS011;10050;55.492;13.506;2023-09-08T09:49:41;5.37;;;4.97;;
19780;SDS011;10050;55.492;13.506;2023-09-08T09:52:07;5.47;;;4.97;;
19780;SDS011;10050;55.492;13.506;2023-09-08T09:54:33;5.00;;;4.50;;
19780;SDS011;10050;55.492;13.506;2023-09-08T09:56:59;6.37;;;5.00;;
19780;SDS011;10050;55.492;13.506;2023-09-08T09:59:26;6.13;;;5.23;;
19780;SDS011;10050;55.492;13.506;2023-09-08T10:01:53;6.43;;;5.27;;
19780;SDS011;10050;55.492;13.506;2023-09-08T10:04:30;5.83;;;5.13;;
19780;SDS011;10050;55.492;13.506;2023-09-08T10:07:04;5.37;;;4.87;;
19780;SDS011;10050;55.492;13.506;2023-09-08T10:09:30;5.47;;;5.07;;
19780;SDS011;10050;55.492;13.506;2023-09-08T10:11:56;5.80;;;5.30;;
19780;SDS011;10050;55.492;13.506;2023-09-08T10:14:27;6.27;;;5.67;;
19780;SDS011;10050;55.492;13.506;2023-09-08T10:16:53;6.47;;;5.80;;
19780;SDS011;10050;55.492;13.506;2023-09-08T10:19:24;7.17;;;5.33;;
19780;SDS011;10050;55.492;13.506;2023-09-08T10:21:50;5.43;;;4.93;;
19780;SDS011;10050;55.492;13.506;2023-09-08T10:24:23;5.67;;;5.17;;
19780;SDS011;10050;55.492;13.506;2023-09-08T10:26:56;7.50;;;5.60;;
19780;SDS011;10050;55.492;13.506;2023-09-08T10:29:27;6.50;;;5.90;;
19780;SDS011;10050;55.492;13.506;2023-09-08T10:31:55;7.47;;;5.70;;
19780;SDS011;10050;55.492;13.506;2023-09-08T10:34:22;6.03;;;4.70;;
19780;SDS011;10050;55.492;13.506;2023-09-08T10:36:49;5.53;;;4.73;;
19780;SDS011;10050;55.492;13.506;2023-09-08T10:39:33;4.43;;;4.03;;
19780;SDS011;10050;55.492;13.506;2023-09-08T10:47:13;5.27;;;4.80;;
19780;SDS011;10050;55.492;13.506;2023-09-08T10:49:39;4.90;;;4.27;;
19780;SDS011;10050;55.492;13.506;2023-09-08T10:52:09;4.57;;;4.17;;
19780;SDS011;10050;55.492;13.506;2023-09-08T10:54:40;6.33;;;4.57;;
19780;SDS011;10050;55.492;13.506;2023-09-08T10:57:06;4.80;;;4.33;;
19780;SDS011;10050;55.492;13.506;2023-09-08T10:59:38;4.57;;;4.17;;
19780;SDS011;10050;55.492;13.506;2023-09-08T11:02:04;4.50;;;4.10;;
19780;SDS011;10050;55.492;13.506;2023-09-08T11:04:30;3.93;;;3.63;;
19780;SDS011;10050;55.492;13.506;2023-09-08T11:06:57;5.17;;;4.30;;
19780;SDS011;10050;55.492;13.506;2023-09-08T11:09:23;4.70;;;4.30;;
19780;SDS011;10050;55.492;13.506;2023-09-08T11:11:49;6.23;;;3.87;;
19780;SDS011;10050;55.492;13.506;2023-09-08T11:14:15;4.57;;;4.17;;
19780;SDS011;10050;55.492;13.506;2023-09-08T11:16:41;4.77;;;4.00;;
19780;SDS011;10050;55.492;13.506;2023-09-08T11:19:08;4.23;;;3.80;;
19780;SDS011;10050;55.492;13.506;2023-09-08T11:21:35;5.20;;;4.50;;
19780;SDS011;10050;55.492;13.506;2023-09-08T11:24:02;5.97;;;4.20;;
19780;SDS011;10050;55.492;13.506;2023-09-08T11:26:32;5.13;;;4.37;;
19780;SDS011;10050;55.492;13.506;2023-09-08T11:28:59;4.53;;;4.13;;
19780;SDS011;10050;55.492;13.506;2023-09-08T11:31:25;5.37;;;4.60;;
19780;SDS011;10050;55.492;13.506;2023-09-08T11:33:54;5.17;;;4.70;;
19780;SDS011;10050;55.492;13.506;2023-09-08T11:36:20;5.20;;;4.63;;
19780;SDS011;10050;55.492;13.506;2023-09-08T11:38:45;5.43;;;4.93;;
19780;SDS011;10050;55.492;13.506;2023-09-08T11:41:11;5.17;;;4.67;;
19780;SDS011;10050;55.492;13.506;2023-09-08T11:43:37;5.17;;;4.67;;
19780;SDS011;10050;55.492;13.506;2023-09-08T11:46:03;6.20;;;4.93;;
19780;SDS011;10050;55.492;13.506;2023-09-08T11:48:28;5.20;;;4.80;;
19780;SDS011;10050;55.492;13.506;2023-09-08T11:50:54;7.23;;;6.00;;
19780;SDS011;10050;55.492;13.506;2023-09-08T11:53:20;6.73;;;5.80;;
19780;SDS011;10050;55.492;13.506;2023-09-08T11:55:46;6.23;;;5.63;;
19780;SDS011;10050;55.492;13.506;2023-09-08T11:58:13;7.43;;;6.60;;
19780;SDS011;10050;55.492;13.506;2023-09-08T12:00:39;7.27;;;6.57;;
19780;SDS011;10050;55.492;13.506;2023-09-08T12:03:12;6.90;;;6.23;;
19780;SDS011;10050;55.492;13.506;2023-09-08T12:05:40;6.40;;;5.43;;
19780;SDS011;10050;55.492;13.506;2023-09-08T12:08:07;6.57;;;5.90;;
19780;SDS011;10050;55.492;13.506;2023-09-08T12:10:39;7.73;;;6.30;;
19780;SDS011;10050;55.492;13.506;2023-09-08T12:13:08;6.73;;;6.13;;
19780;SDS011;10050;55.492;13.506;2023-09-08T12:18:01;7.17;;;6.30;;
19780;SDS011;10050;55.492;13.506;2023-09-08T12:20:28;7.97;;;6.90;;
19780;SDS011;10050;55.492;13.506;2023-09-08T12:22:56;8.97;;;6.00;;
19780;SDS011;10050;55.492;13.506;2023-09-08T12:25:26;7.10;;;6.47;;
19780;SDS011;10050;55.492;13.506;2023-09-08T12:27:53;8.43;;;6.00;;
19780;SDS011;10050;55.492;13.506;2023-09-08T12:30:19;6.80;;;6.10;;
19780;SDS011;10050;55.492;13.506;2023-09-08T12:32:50;6.30;;;5.80;;
19780;SDS011;10050;55.492;13.506;2023-09-08T12:35:19;6.83;;;5.90;;
19780;SDS011;10050;55.492;13.506;2023-09-08T12:37:53;6.23;;;5.73;;
19780;SDS011;10050;55.492;13.506;2023-09-08T12:40:24;7.67;;;6.73;;
19780;SDS011;10050;55.492;13.506;2023-09-08T12:42:50;6.50;;;5.77;;
19780;SDS011;10050;55.492;13.506;2023-09-08T12:45:17;6.73;;;6.13;;
19780;SDS011;10050;55.492;13.506;2023-09-08T12:47:43;8.93;;;5.87;;
19780;SDS011;10050;55.492;13.506;2023-09-08T12:50:09;7.40;;;5.27;;
19780;SDS011;10050;55.492;13.506;2023-09-08T12:52:35;6.60;;;6.00;;
19780;SDS011;10050;55.492;13.506;2023-09-08T12:55:01;5.47;;;4.97;;
19780;SDS011;10050;55.492;13.506;2023-09-08T12:57:26;9.67;;;6.33;;
19780;SDS011;10050;55.492;13.506;2023-09-08T12:59:52;6.37;;;5.53;;
19780;SDS011;10050;55.492;13.506;2023-09-08T13:02:18;6.30;;;5.43;;
19780;SDS011;10050;55.492;13.506;2023-09-08T13:04:44;6.83;;;6.10;;
19780;SDS011;10050;55.492;13.506;2023-09-08T13:07:13;6.87;;;6.17;;
19780;SDS011;10050;55.492;13.506;2023-09-08T13:09:40;6.43;;;5.83;;
19780;SDS011;10050;55.492;13.506;2023-09-08T13:12:05;7.83;;;5.30;;
19780;SDS011;10050;55.492;13.506;2023-09-08T13:14:35;8.07;;;6.67;;
19780;SDS011;10050;55.492;13.506;2023-09-08T13:17:01;6.13;;;5.63;;
19780;SDS011;10050;55.492;13.506;2023-09-08T13:19:27;6.70;;;5.97;;
19780;SDS011;10050;55.492;13.506;2023-09-08T13:21:54;6.30;;;5.80;;
19780;SDS011;10050;55.492;13.506;2023-09-08T13:24:19;6.60;;;5.73;;
19780;SDS011;10050;55.492;13.506;2023-09-08T13:26:47;7.80;;;6.23;;
19780;SDS011;10050;55.492;13.506;2023-09-08T13:29:12;6.40;;;5.80;;
19780;SDS011;10050;55.492;13.506;2023-09-08T13:31:38;6.37;;;5.77;;
19780;SDS011;10050;55.492;13.506;2023-09-08T13:34:04;7.03;;;5.90;;
19780;SDS011;10050;55.492;13.506;2023-09-08T13:36:30;5.87;;;5.47;;
19780;SDS011;10050;55.492;13.506;2023-09-08T13:38:56;5.57;;;5.10;;
19780;SDS011;10050;55.492;13.506;2023-09-08T13:41:21;6.40;;;5.80;;
19780;SDS011;10050;55.492;13.506;2023-09-08T13:43:47;6.60;;;6.00;;
19780;SDS011;10050;55.492;13.506;2023-09-08T13:46:13;7.73;;;6.93;;
19780;SDS011;10050;55.492;13.506;2023-09-08T13:48:38;8.73;;;6.70;;
19780;SDS011;10050;55.492;13.506;2023-09-08T13:51:04;6.97;;;5.83;;
19780;SDS011;10050;55.492;13.506;2023-09-08T13:53:30;8.40;;;6.73;;
19780;SDS011;10050;55.492;13.506;2023-09-08T13:55:56;6.67;;;6.00;;
19780;SDS011;10050;55.492;13.506;2023-09-08T13:58:22;7.07;;;5.47;;
19780;SDS011;10050;55.492;13.506;2023-09-08T14:00:47;6.57;;;5.97;;
19780;SDS011;10050;55.492;13.506;2023-09-08T14:03:19;6.80;;;6.20;;
19780;SDS011;10050;55.492;13.506;2023-09-08T14:05:45;6.50;;;5.90;;
19780;SDS011;10050;55.492;13.506;2023-09-08T14:08:10;6.50;;;6.00;;
19780;SDS011;10050;55.492;13.506;2023-09-08T14:10:36;6.90;;;6.30;;
19780;SDS011;10050;55.492;13.506;2023-09-08T14:13:01;6.90;;;5.90;;
19780;SDS011;10050;55.492;13.506;2023-09-08T14:15:27;6.80;;;6.27;;
19780;SDS011;10050;55.492;13.506;2023-09-08T14:17:53;7.53;;;6.80;;
19780;SDS011;10050;55.492;13.506;2023-09-08T14:20:18;7.80;;;6.23;;
19780;SDS011;10050;55.492;13.506;2023-09-08T14:22:44;6.80;;;6.10;;
19780;SDS011;10050;55.492;13.506;2023-09-08T14:25:10;9.63;;;6.10;;
19780;SDS011;10050;55.492;13.506;2023-09-08T14:27:36;6.80;;;6.10;;
19780;SDS011;10050;55.492;13.506;2023-09-08T14:30:02;6.27;;;5.67;;
19780;SDS011;10050;55.492;13.506;2023-09-08T14:32:29;6.27;;;5.77;;
19780;SDS011;10050;55.492;13.506;2023-09-08T14:34:55;6.87;;;6.07;;
19780;SDS011;10050;55.492;13.506;2023-09-08T14:37:21;7.17;;;5.67;;
19780;SDS011;10050;55.492;13.506;2023-09-08T14:39:47;6.50;;;5.87;;